Time;durP1;ratioP1;P1;durP2;ratioP2;P2;SDS_P1;SDS_P2;PMS_P1;PMS_P2;Temp;Humidity;BMP_temperature;BMP_pressure;BME280_temperature;BME280_humidity;BME280_pressure;Samples;Min_cycle;Max_cycle;Signal;HPM_P1;HPM_P2
2022/06/06 00:03:55;;;;;;;3.38;3.08;;;26.10;35.10;;;24.62;36.58;100900.47;12245258;19;20062;-84
2022/06/06 00:07:58;;;;;;;3.58;3.28;;;26.20;35.10;;;24.59;36.72;100892.00;12248975;19;20013;-84
2022/06/06 00:12:03;;;;;;;3.50;3.30;;;26.10;35.10;;;24.57;36.31;100881.47;12247783;19;20074;-84
2022/06/06 00:16:05;;;;;;;3.10;2.90;;;26.10;35.10;;;24.42;36.42;100859.97;12248410;19;20014;-84
2022/06/06 00:20:08;;;;;;;3.50;3.20;;;26.10;35.10;;;24.51;36.55;100868.81;12244685;19;20015;-84
2022/06/06 00:24:11;;;;;;;4.30;2.80;;;26.10;35.10;;;24.42;36.87;100861.81;12245634;19;20334;-84
2022/06/06 00:28:13;;;;;;;3.45;3.25;;;26.30;35.30;;;24.31;36.70;100843.50;12239612;19;20019;-84
2022/06/06 00:36:37;;;;;;;3.28;3.03;;;26.10;35.10;;;24.50;36.52;100872.50;12236554;19;20014;-84
2022/06/06 00:40:39;;;;;;;3.30;3.10;;;26.10;35.10;;;24.59;36.77;100882.13;12236962;19;20022;-84
2022/06/06 00:44:42;;;;;;;3.70;3.40;;;26.10;35.20;;;24.42;36.89;100845.81;12237210;19;20070;-84
2022/06/06 00:48:43;;;;;;;3.75;3.45;;;26.10;35.30;;;24.51;36.91;100863.47;12243752;19;20099;-85
2022/06/06 00:52:49;;;;;;;3.47;3.28;;;26.00;35.30;;;24.38;36.85;100845.28;12243114;19;20012;-84
2022/06/06 00:57:00;;;;;;;3.53;3.22;;;26.10;35.30;;;24.51;36.74;100871.50;12245239;19;20007;-84
2022/06/06 01:01:03;;;;;;;4.15;3.35;;;26.30;35.50;;;24.43;36.87;100868.81;12242694;19;20010;-83
2022/06/06 01:05:06;;;;;;;3.70;3.40;;;26.10;35.30;;;24.31;36.81;100849.69;12242558;19;20089;-83
2022/06/06 01:09:09;;;;;;;3.20;3.00;;;26.00;35.50;;;24.38;37.23;100876.50;12238787;19;20018;-84
2022/06/06 01:13:13;;;;;;;6.18;3.25;;;26.00;35.40;;;24.20;37.44;100842.88;12244163;19;20819;-84
2022/06/06 01:17:21;;;;;;;3.88;3.53;;;25.90;35.50;;;24.29;37.45;100855.16;12241735;19;20010;-83
2022/06/06 01:22:02;;;;;;;3.30;3.10;;;25.90;35.80;;;24.24;37.40;100851.34;12230214;19;20361;-83
2022/06/06 01:26:31;;;;;;;3.42;3.10;;;25.90;35.90;;;24.04;38.00;100832.22;12244116;19;20031;-84
2022/06/06 01:30:43;;;;;;;3.70;3.40;;;25.80;36.30;;;23.94;38.44;100835.06;12240989;19;20018;-83
2022/06/06 01:34:48;;;;;;;3.83;3.20;;;25.70;36.50;;;23.83;37.91;100822.91;12242000;19;20015;-83
2022/06/06 01:38:50;;;;;;;3.60;3.38;;;25.60;36.40;;;23.78;38.37;100829.75;12241569;19;20018;-83
2022/06/06 01:43:01;;;;;;;3.50;3.20;;;25.50;36.50;;;23.70;38.45;100824.41;12239994;19;20851;-84
2022/06/06 01:47:07;;;;;;;3.92;3.22;;;25.50;36.60;;;23.69;38.45;100822.75;12240449;19;20694;-84
2022/06/06 01:51:23;;;;;;;3.17;2.97;;;25.40;36.50;;;23.59;38.36;100813.06;12241431;19;20749;-83
2022/06/06 01:55:27;;;;;;;3.70;2.92;;;25.30;36.70;;;23.46;38.61;100801.25;12239159;19;20014;-84
2022/06/06 01:59:29;;;;;;;4.75;3.90;;;25.20;36.70;;;23.56;38.76;100825.91;12241485;19;20048;-84
2022/06/06 02:03:32;;;;;;;3.67;3.47;;;25.20;37.60;;;23.34;39.66;100817.59;12238226;19;20018;-83
2022/06/06 02:07:34;;;;;;;5.10;4.00;;;25.20;38.40;;;23.22;39.67;100810.91;12242674;19;20049;-85
2022/06/06 02:11:35;;;;;;;3.72;3.40;;;25.10;38.90;;;23.15;40.41;100825.91;12232907;19;20018;-85
2022/06/06 02:15:38;;;;;;;4.78;3.35;;;25.00;39.30;;;23.05;40.68;100833.19;12230703;19;20028;-85
2022/06/06 02:19:40;;;;;;;3.92;3.63;;;24.80;39.50;;;22.80;41.06;100810.97;12232142;19;20086;-85
2022/06/06 02:23:44;;;;;;;3.97;3.63;;;24.80;39.70;;;22.87;41.08;100831.47;12233345;19;20015;-85
2022/06/06 02:27:45;;;;;;;4.05;3.75;;;24.70;40.00;;;22.81;41.15;100840.09;12233712;19;20014;-85
2022/06/06 02:31:47;;;;;;;4.07;3.78;;;24.80;39.90;;;22.80;41.21;100842.94;12241823;19;20025;-86
2022/06/06 02:35:50;;;;;;;4.07;3.72;;;24.50;39.50;;;22.57;41.57;100816.03;12238691;19;20387;-86
2022/06/06 02:39:51;;;;;;;4.18;3.88;;;24.40;39.80;;;22.50;41.65;100827.34;12239877;19;20467;-86
2022/06/06 02:43:53;;;;;;;4.50;4.20;;;24.30;39.80;;;22.34;41.55;100808.63;12237612;19;20033;-86
2022/06/06 02:47:58;;;;;;;4.35;4.05;;;24.30;39.70;;;22.59;42.02;100852.16;12239390;19;20078;-86
2022/06/06 02:52:04;;;;;;;4.47;4.07;;;24.30;40.30;;;22.25;42.13;100791.81;12238217;19;20028;-85
2022/06/06 02:56:06;;;;;;;4.65;4.10;;;24.30;40.50;;;22.59;41.85;100856.66;12238544;19;20015;-85
2022/06/06 03:00:14;;;;;;;4.43;4.13;;;24.30;40.40;;;22.62;41.94;100862.47;12237545;19;20030;-86
2022/06/06 03:04:15;;;;;;;3.95;3.65;;;24.30;40.40;;;22.67;41.91;100875.31;12237619;19;20022;-86
2022/06/06 03:08:51;;;;;;;4.45;4.15;;;24.30;40.50;;;22.59;42.43;100860.16;12236666;19;20022;-86
2022/06/06 03:13:12;;;;;;;;;;;24.30;40.90;;;22.59;41.42;100867.31;12240924;19;20010;-86
2022/06/06 03:22:52;;;;;;;5.00;4.50;;;24.40;41.30;;;22.72;43.02;100910.28;12247431;19;20019;-88
2022/06/06 03:27:25;;;;;;;4.57;4.18;;;24.30;42.30;;;22.71;43.61;100919.25;12247139;19;20037;-87
2022/06/06 03:31:45;;;;;;;4.75;4.25;;;24.30;42.60;;;22.68;43.66;100933.75;12252669;19;20011;-88
2022/06/06 03:36:24;;;;;;;4.63;4.30;;;24.30;42.90;;;22.68;43.95;100941.72;12243915;19;20014;-89
2022/06/06 03:40:56;;;;;;;4.88;4.38;;;24.30;43.40;;;22.49;44.09;100923.31;12248775;19;20015;-84
2022/06/06 03:45:21;;;;;;;5.68;5.18;;;24.20;43.90;;;22.66;44.74;100937.56;12245393;19;20026;-86
2022/06/06 03:49:29;;;;;;;5.10;4.70;;;24.20;43.90;;;22.61;44.60;100951.34;12246937;19;20404;-88
2022/06/06 03:54:14;;;;;;;5.28;4.78;;;24.20;43.70;;;22.46;44.52;100926.28;12248474;19;20014;-86
2022/06/06 03:58:20;;;;;;;5.50;5.00;;;24.20;44.60;;;22.29;44.82;100917.38;12243414;19;20022;-85
2022/06/06 04:02:31;;;;;;;5.28;4.82;;;24.10;44.40;;;22.48;45.46;100943.75;12236756;19;20082;-86
2022/06/06 04:06:34;;;;;;;4.50;4.10;;;24.10;44.90;;;22.44;45.39;100937.09;12237383;19;20019;-86
2022/06/06 04:11:12;;;;;;;4.53;4.13;;;24.10;44.90;;;22.52;45.90;100947.78;12240915;19;20476;-87
2022/06/06 04:15:53;;;;;;;4.72;4.32;;;24.20;45.60;;;22.56;45.40;100955.47;12240161;19;20028;-87
2022/06/06 04:20:22;;;;;;;4.88;4.38;;;24.00;45.30;;;22.34;46.04;100923.06;12246403;19;20476;-86
2022/06/06 04:24:54;;;;;;;5.40;5.00;;;24.10;45.50;;;22.36;46.38;100941.50;12242181;19;20074;-87
2022/06/06 04:29:10;;;;;;;5.03;4.63;;;24.00;45.70;;;22.34;46.62;100944.34;12245673;19;20019;-87
2022/06/06 04:33:29;;;;;;;5.20;4.70;;;24.00;46.30;;;22.36;46.70;100955.69;12242636;19;20018;-85
2022/06/06 04:38:01;;;;;;;4.38;3.97;;;24.10;46.30;;;22.38;46.76;100955.50;12245931;19;20497;-86
2022/06/06 04:42:13;;;;;;;4.13;3.83;;;24.10;46.40;;;22.38;46.97;100985.59;12241889;19;20018;-87
2022/06/06 04:46:58;;;;;;;5.35;3.92;;;24.00;46.30;;;22.20;47.11;100955.56;12245642;19;20086;-85
2022/06/06 04:51:02;;;;;;;4.20;3.90;;;24.00;46.80;;;22.22;46.94;100970.34;12245177;19;20390;-86
2022/06/06 04:55:07;;;;;;;4.18;3.88;;;24.00;46.70;;;22.26;47.05;100990.34;12241628;19;20018;-87
2022/06/06 04:59:11;;;;;;;4.68;4.10;;;23.90;46.80;;;22.28;47.24;100982.22;12240025;19;20023;-87
2022/06/06 05:03:15;;;;;;;4.25;3.90;;;23.90;47.10;;;22.36;47.33;101014.22;12241111;19;20479;-87
2022/06/06 05:07:54;;;;;;;4.38;3.97;;;23.90;47.00;;;22.43;47.98;101025.06;12244457;19;20563;-88
2022/06/06 05:12:47;;;;;;;4.78;4.38;;;24.00;47.70;;;22.45;47.55;101037.22;12244629;19;20014;-88
2022/06/06 05:17:03;;;;;;;4.20;3.90;;;24.00;47.90;;;22.39;47.90;101035.19;12240918;19;20018;-87
2022/06/06 05:21:45;;;;;;;7.22;4.97;;;24.00;48.10;;;22.28;47.68;101040.75;12240674;19;20010;-88
2022/06/06 05:26:32;;;;;;;5.35;4.70;;;24.00;47.90;;;22.24;48.09;101055.34;12240030;19;20096;-86
2022/06/06 05:31:07;;;;;;;5.15;4.75;;;23.90;47.90;;;22.18;48.05;101054.13;12240573;19;20385;-87
2022/06/06 05:35:59;;;;;;;6.00;5.50;;;23.80;47.80;;;22.14;48.29;101046.56;12237883;19;20021;-88
2022/06/06 05:40:28;;;;;;;5.32;4.82;;;23.70;48.00;;;22.17;48.45;101048.91;12240786;19;20024;-87
2022/06/06 05:44:47;;;;;;;6.20;5.65;;;23.70;48.10;;;22.23;48.52;101053.69;12240070;19;20022;-88
2022/06/06 05:49:16;;;;;;;5.78;5.28;;;23.80;48.50;;;22.14;48.89;101047.41;12242797;19;20019;-88
2022/06/06 05:53:54;;;;;;;6.30;5.70;;;23.80;48.70;;;22.30;48.73;101068.03;12241969;19;20021;-88
2022/06/06 05:58:30;;;;;;;5.63;5.13;;;23.80;48.60;;;22.31;48.57;101083.03;12240209;19;20017;-88
2022/06/06 06:02:47;;;;;;;7.30;6.18;;;23.80;48.60;;;22.31;48.90;101088.34;12241482;19;20082;-92
2022/06/06 06:07:05;;;;;;;7.90;6.07;;;23.80;48.70;;;22.29;49.34;101079.69;12239975;19;20666;-89
2022/06/06 06:12:01;;;;;;;6.75;6.13;;;24.00;49.30;;;22.34;49.22;101085.38;12238875;19;20025;-86
2022/06/06 06:16:06;;;;;;;6.90;6.30;;;23.90;49.20;;;22.19;48.99;101058.47;12241752;19;20017;-86
2022/06/06 06:20:14;;;;;;;6.28;5.70;;;23.90;49.10;;;22.40;49.62;101082.09;12237779;19;20028;-88
2022/06/06 06:24:33;;;;;;;6.40;5.90;;;24.10;49.40;;;22.06;49.93;101026.91;12238132;19;20581;-85
2022/06/06 06:28:36;;;;;;;6.30;5.72;;;24.00;49.50;;;22.39;49.53;101084.94;12236787;19;20007;-96
2022/06/06 06:33:12;;;;;;;6.40;5.90;;;24.00;49.50;;;22.45;50.28;101093.13;12241141;19;20015;-87
2022/06/06 06:37:31;;;;;;;8.30;5.93;;;24.00;50.10;;;22.50;50.29;101090.00;12237754;19;20122;-87
2022/06/06 06:41:52;;;;;;;6.50;6.00;;;24.00;50.30;;;22.44;50.33;101078.16;12238697;19;20039;-85
2022/06/06 06:46:06;;;;;;;5.90;5.32;;;24.00;50.40;;;22.60;50.39;101092.56;12236094;19;20088;-85
2022/06/06 06:50:18;;;;;;;6.32;5.75;;;24.30;50.50;;;22.65;50.44;101087.63;12240400;19;20011;-89
2022/06/06 06:54:51;;;;;;;5.40;4.97;;;24.10;50.40;;;22.73;50.54;101093.00;12239143;19;20037;-89
2022/06/06 06:59:03;;;;;;;6.72;5.45;;;24.20;50.50;;;22.77;50.85;101086.41;12240177;19;20031;-89
2022/06/06 07:08:50;;;;;;;4.53;4.13;;;24.30;50.70;;;23.12;50.67;101082.00;12236505;19;20019;-87
2022/06/06 07:14:01;;;;;;;4.70;4.30;;;24.40;50.70;;;23.31;50.22;101100.41;12233154;19;20014;-89
2022/06/06 07:18:08;;;;;;;4.45;4.15;;;24.60;50.40;;;23.29;50.01;101085.56;12231228;19;20432;-87
2022/06/06 07:22:11;;;;;;;4.50;4.20;;;24.80;49.30;;;23.44;50.00;101091.13;12233971;19;20515;-87
2022/06/06 07:26:14;;;;;;;4.10;3.80;;;24.90;49.20;;;23.16;49.70;101038.03;12230261;19;20525;-85
2022/06/06 07:30:16;;;;;;;4.38;4.07;;;25.30;49.20;;;23.34;50.21;101065.44;12231228;19;20014;-84
2022/06/06 07:34:42;;;;;;;3.78;3.47;;;25.30;49.40;;;23.68;50.16;101101.88;12232718;19;20090;-86
2022/06/06 07:38:52;;;;;;;;;;;25.10;49.20;;;23.74;49.34;101089.81;12236800;19;20006;-86
2022/06/06 07:43:44;;;;;;;3.63;3.00;;;25.20;47.80;;;23.77;50.07;101076.97;12227607;19;19919;-87
2022/06/06 07:48:30;;;;;;;4.30;3.90;;;25.20;48.90;;;23.99;49.41;101080.84;12232327;19;20018;-87
2022/06/06 07:52:47;;;;;;;3.57;3.27;;;25.40;48.30;;;24.02;49.14;101063.69;12233513;19;20018;-88
2022/06/06 07:57:06;;;;;;;3.97;3.67;;;25.50;48.00;;;24.26;49.46;101077.06;12236760;19;20011;-88
2022/06/06 08:01:21;;;;;;;3.75;3.40;;;25.60;48.60;;;24.20;49.20;101026.19;12231840;19;20368;-88
2022/06/06 08:05:56;;;;;;;3.55;3.30;;;25.80;48.10;;;24.70;48.87;101076.75;12230283;19;20107;-90
2022/06/06 08:10:52;;;;;;;4.22;3.05;;;25.90;47.20;;;24.70;48.83;101062.56;12241566;19;20082;-87
2022/06/06 08:15:24;;;;;;;3.35;3.15;;;26.10;46.70;;;24.74;48.75;101063.91;12235446;19;20011;-86
2022/06/06 08:19:52;;;;;;;4.03;3.72;;;26.20;46.90;;;24.86;48.39;101069.72;12239936;19;20359;-88
2022/06/06 08:23:59;;;;;;;3.67;3.38;;;26.30;46.50;;;25.04;48.15;101072.19;12232088;19;20514;-87
2022/06/06 08:28:03;;;;;;;3.50;3.20;;;26.50;46.30;;;25.10;48.43;101058.97;12238393;19;20031;-89
2022/06/06 08:32:06;;;;;;;3.75;3.42;;;26.50;46.00;;;25.19;47.78;101053.63;12238758;19;20512;-89
2022/06/06 08:36:35;;;;;;;3.72;3.42;;;26.70;45.60;;;25.42;47.95;101067.09;12242125;19;20414;-88
2022/06/06 08:41:11;;;;;;;3.80;3.03;;;26.80;45.40;;;25.44;47.67;101081.94;12240007;19;20014;-87
2022/06/06 08:45:29;;;;;;;3.63;3.33;;;26.90;45.30;;;25.55;47.28;101075.38;12237494;19;20014;-88
2022/06/06 08:55:20;;;;;;;3.60;3.30;;;27.10;45.00;;;25.62;47.32;101057.63;12236340;19;20014;-84
2022/06/06 08:59:57;;;;;;;2.80;2.60;;;27.20;44.60;;;25.76;47.10;101051.53;12241408;19;20026;-86
2022/06/06 09:04:35;;;;;;;2.97;2.78;;;27.20;44.90;;;25.78;46.74;101037.97;12236835;19;20353;-86
2022/06/06 09:09:20;;;;;;;3.38;3.00;;;27.30;44.20;;;25.89;46.74;101068.88;12240028;19;20010;-85
2022/06/06 09:14:23;;;;;;;3.08;2.88;;;27.30;44.10;;;26.01;46.70;101062.94;12241317;19;20492;-86
2022/06/06 09:18:39;;;;;;;3.05;2.85;;;27.40;44.00;;;26.12;46.25;101053.66;12213341;19;20105;-85
2022/06/06 09:23:21;;;;;;;3.25;2.95;;;27.50;43.50;;;25.94;46.54;101040.56;12211226;19;20098;-85
2022/06/06 09:28:06;;;;;;;3.03;2.83;;;27.60;43.60;;;26.04;46.42;101062.59;12210935;19;20569;-85
2022/06/06 09:32:36;;;;;;;3.30;3.03;;;27.50;43.80;;;26.10;46.21;101065.56;12216116;19;20018;-85
2022/06/06 09:37:00;;;;;;;3.30;3.10;;;27.60;43.40;;;26.10;46.11;101047.66;12206904;19;20504;-85
2022/06/06 09:41:41;;;;;;;3.00;2.80;;;27.60;43.50;;;26.17;46.08;101045.94;12212568;19;20098;-85
2022/06/06 09:46:10;;;;;;;3.22;3.03;;;27.80;43.10;;;26.28;45.87;101055.38;12217323;19;20402;-85
2022/06/06 09:50:53;;;;;;;3.10;2.80;;;27.80;43.20;;;26.33;45.80;101063.72;12187261;19;20758;-85
2022/06/06 10:00:17;;;;;;;3.05;2.85;;;27.90;43.20;;;26.53;45.70;101049.84;12205018;19;20014;-85
2022/06/06 10:04:56;;;;;;;3.13;2.80;;;28.00;42.70;;;26.52;45.35;101053.53;12196657;19;20082;-85
2022/06/06 10:09:40;;;;;;;2.70;2.50;;;28.00;42.50;;;26.49;45.11;101052.88;12180159;19;20018;-85
2022/06/06 10:14:29;;;;;;;3.10;2.70;;;28.00;42.10;;;26.52;44.77;101053.53;12182209;19;20014;-84
2022/06/06 10:19:03;;;;;;;3.17;2.55;;;28.10;41.40;;;26.64;44.70;101052.09;12214020;19;20022;-85
2022/06/06 10:23:09;;;;;;;2.83;2.63;;;28.10;41.60;;;26.66;44.76;101056.25;12211881;19;20064;-85
2022/06/06 10:27:41;;;;;;;;;;;28.20;42.20;;;26.70;45.10;101059.38;12211316;19;20025;-86
2022/06/06 10:32:14;;;;;;;2.63;2.42;;;28.20;42.10;;;26.74;44.70;101060.69;12195753;19;19918;-85
2022/06/06 10:36:59;;;;;;;3.63;2.80;;;28.30;41.80;;;26.87;44.18;101060.06;12215037;19;20026;-86
2022/06/06 10:42:01;;;;;;;2.50;2.33;;;28.30;41.20;;;26.88;44.38;101064.41;12219617;19;20259;-86
2022/06/06 10:46:19;;;;;;;2.28;2.10;;;28.40;41.40;;;26.81;44.29;101036.66;12220570;19;20014;-85
2022/06/06 10:55:42;;;;;;;2.88;2.38;;;28.40;41.70;;;27.22;44.01;101045.13;12218542;19;20026;-85
2022/06/06 11:00:03;;;;;;;2.80;2.60;;;28.50;41.80;;;27.46;44.01;101061.91;12220645;19;20391;-83
2022/06/06 11:04:49;;;;;;;2.80;2.08;;;28.70;41.90;;;27.56;43.97;101057.91;12221266;19;20477;-85
2022/06/06 11:09:21;;;;;;;3.30;2.50;;;28.90;41.40;;;27.54;43.36;101065.34;12216114;19;20019;-86
2022/06/06 11:13:49;;;;;;;2.28;2.17;;;28.90;40.90;;;27.45;43.72;101060.25;12220249;19;20014;-87
2022/06/06 11:18:35;;;;;;;3.38;2.17;;;28.90;40.60;;;27.29;43.72;101055.94;12215291;19;20015;-86
2022/06/06 11:22:57;;;;;;;2.70;2.13;;;28.90;40.90;;;27.21;43.76;101059.53;12212310;19;20010;-84
2022/06/06 11:27:17;;;;;;;2.25;2.05;;;28.80;40.40;;;27.18;43.68;101065.28;12225847;19;20027;-86
2022/06/06 11:31:52;;;;;;;2.42;1.98;;;28.80;40.80;;;27.07;43.47;101066.53;12232897;19;20067;-84
2022/06/06 11:36:22;;;;;;;1.90;1.80;;;28.70;40.60;;;27.00;43.54;101067.47;12237158;19;20029;-86
2022/06/06 11:40:51;;;;;;;2.20;2.10;;;28.70;40.60;;;26.93;43.46;101056.66;12244213;19;20031;-88
2022/06/06 11:45:26;;;;;;;1.77;1.50;;;28.50;40.40;;;26.81;43.55;101042.03;12241333;19;20082;-83
2022/06/06 11:50:08;;;;;;;1.88;1.77;;;28.50;40.70;;;26.90;43.38;101051.66;12236267;19;20019;-84
2022/06/06 11:54:19;;;;;;;1.90;1.80;;;28.40;40.80;;;26.93;43.07;101049.44;12240890;19;20014;-84
2022/06/06 11:59:10;;;;;;;1.70;1.60;;;28.40;40.50;;;26.97;42.98;101049.06;12238157;19;20010;-86
2022/06/06 12:03:58;;;;;;;1.63;1.48;;;28.40;40.60;;;27.00;43.41;101046.00;12239053;19;20014;-83
2022/06/06 12:08:39;;;;;;;1.52;1.42;;;28.40;40.80;;;27.13;43.36;101046.19;12211994;19;20030;-88
2022/06/06 12:13:12;;;;;;;1.80;1.67;;;28.50;40.60;;;27.23;43.49;101035.22;12228805;19;20018;-83
2022/06/06 12:17:33;;;;;;;1.80;1.70;;;28.60;40.90;;;27.31;43.06;101035.13;12221800;19;20118;-84
2022/06/06 12:22:15;;;;;;;1.90;1.80;;;28.70;40.60;;;27.36;43.02;101035.41;12228169;19;20022;-84
2022/06/06 12:26:35;;;;;;;2.03;1.75;;;28.70;40.10;;;27.44;42.62;101031.78;12205952;19;20006;-86
2022/06/06 12:31:01;;;;;;;1.60;1.50;;;28.80;40.40;;;27.51;42.46;101033.50;12223216;19;20019;-86
2022/06/06 12:35:23;;;;;;;2.22;1.33;;;28.90;40.30;;;27.55;42.18;101025.94;12224888;19;20026;-84
2022/06/06 12:39:45;;;;;;;2.30;1.95;;;28.90;39.90;;;27.55;42.24;101023.25;12220370;19;20017;-86
2022/06/06 12:44:25;;;;;;;2.33;1.40;;;28.90;39.70;;;27.59;42.42;101011.09;12224931;19;20021;-85
2022/06/06 12:48:39;;;;;;;1.70;1.60;;;29.00;39.90;;;27.64;42.57;101008.69;12223561;19;20025;-86
2022/06/06 12:53:12;;;;;;;1.42;1.33;;;29.10;39.80;;;27.74;42.16;101008.38;12233236;19;20010;-84
2022/06/06 12:57:15;;;;;;;1.58;1.48;;;29.10;40.00;;;27.85;42.17;101001.72;12236900;19;20446;-86
2022/06/06 13:01:53;;;;;;;1.70;1.60;;;29.20;39.80;;;28.02;41.63;100992.34;12235565;19;20023;-84
2022/06/06 13:06:52;;;;;;;2.00;1.90;;;29.30;39.50;;;28.23;41.89;101000.41;12237144;19;20014;-84
2022/06/06 13:11:59;;;;;;;1.60;1.50;;;29.40;39.80;;;28.34;41.53;100998.22;12235219;19;20464;-86
2022/06/06 13:16:27;;;;;;;1.80;1.70;;;29.60;39.30;;;28.42;41.10;100990.81;12235722;19;20627;-85
2022/06/06 13:20:58;;;;;;;1.83;1.73;;;29.70;39.20;;;28.36;41.34;100969.31;12239875;19;20018;-85
2022/06/06 13:25:35;;;;;;;1.63;1.52;;;29.80;38.90;;;28.41;40.96;100978.44;12237504;19;20101;-90
2022/06/06 13:29:37;;;;;;;1.80;1.70;;;29.90;38.70;;;28.48;40.92;100985.72;12237498;19;20012;-85
2022/06/06 13:34:18;;;;;;;1.85;1.75;;;29.90;38.30;;;28.51;40.74;100980.78;12237459;19;20014;-86
2022/06/06 13:38:47;;;;;;;2.00;1.80;;;29.90;38.20;;;28.60;40.95;100984.16;12232900;19;20514;-87
2022/06/06 13:42:55;;;;;;;1.70;1.60;;;30.00;38.40;;;28.62;40.73;100977.53;12235555;19;20015;-86
2022/06/06 13:47:56;;;;;;;1.73;1.55;;;30.00;38.40;;;28.58;40.50;100978.16;12230790;19;20492;-87
2022/06/06 13:52:31;;;;;;;1.58;1.48;;;30.00;37.80;;;28.53;40.14;100978.75;12234417;19;20014;-86
2022/06/06 13:56:46;;;;;;;2.33;1.48;;;30.00;37.50;;;28.59;40.13;100961.00;12231049;19;20010;-86
2022/06/06 14:01:18;;;;;;;2.10;1.57;;;30.00;37.70;;;28.73;39.66;100961.91;12237688;19;20041;-86
2022/06/06 14:05:54;;;;;;;1.77;1.48;;;30.10;37.60;;;28.78;39.75;100962.13;12237063;19;20472;-87
2022/06/06 14:10:10;;;;;;;1.63;1.53;;;30.10;37.20;;;28.61;39.68;100940.13;12234249;19;20019;-86
2022/06/06 14:14:17;;;;;;;1.38;1.27;;;30.20;37.60;;;28.56;39.80;100924.59;12235027;19;20032;-86
2022/06/06 14:18:31;;;;;;;1.85;1.30;;;30.20;37.40;;;28.79;39.48;100947.69;12229879;19;20012;-87
2022/06/06 14:22:36;;;;;;;1.73;1.63;;;30.20;36.90;;;28.82;38.99;100929.28;12233493;19;20025;-85
2022/06/06 14:26:39;;;;;;;1.90;1.40;;;30.30;36.80;;;28.88;39.14;100908.84;12230487;19;20090;-86
2022/06/06 14:30:41;;;;;;;1.50;1.40;;;30.40;37.30;;;29.01;39.24;100903.50;12234474;19;20082;-86
2022/06/06 14:34:47;;;;;;;1.42;1.33;;;30.50;37.20;;;29.30;38.93;100939.19;12231743;19;20022;-85
2022/06/06 14:39:02;;;;;;;1.38;1.27;;;30.60;37.30;;;29.33;38.85;100920.81;12232562;19;20014;-85
2022/06/06 14:43:07;;;;;;;1.50;1.40;;;30.80;37.20;;;29.37;39.03;100926.59;12228949;19;20114;-87
2022/06/06 14:47:21;;;;;;;1.80;1.70;;;30.80;37.20;;;29.21;38.89;100895.50;12204486;19;20539;-85
2022/06/06 14:51:39;;;;;;;;;;;30.80;36.50;;;29.35;38.92;100923.28;12220368;19;20027;-85
2022/06/06 14:55:45;;;;;;;1.00;1.00;;;30.80;37.10;;;29.19;38.73;100916.44;12215745;19;19939;-85
2022/06/06 14:59:51;;;;;;;1.38;1.17;;;30.80;36.30;;;29.16;38.44;100910.59;12220040;19;20031;-85
2022/06/06 15:04:00;;;;;;;1.35;1.25;;;30.70;36.00;;;29.11;38.51;100912.06;12219096;19;20611;-86
2022/06/06 15:08:22;;;;;;;1.50;1.40;;;30.60;36.40;;;29.10;38.46;100910.38;12220810;19;20436;-86
2022/06/06 15:12:26;;;;;;;1.63;1.52;;;30.60;36.30;;;28.81;38.42;100873.00;12233405;19;20105;-85
2022/06/06 15:16:32;;;;;;;1.73;1.60;;;30.60;36.40;;;28.86;38.08;100886.69;12227572;19;20014;-85
2022/06/06 15:20:38;;;;;;;1.35;1.20;;;30.60;36.00;;;28.73;37.92;100875.88;12230129;19;20010;-85
2022/06/06 15:24:44;;;;;;;1.48;1.38;;;30.50;36.00;;;28.80;37.54;100898.25;12230968;19;20025;-85
2022/06/06 15:29:12;;;;;;;1.10;1.10;;;30.40;35.50;;;28.81;37.26;100916.88;12228696;19;20540;-86
2022/06/06 15:33:23;;;;;;;0.98;0.98;;;30.30;35.00;;;28.73;37.47;100910.81;12231856;19;20021;-86
2022/06/06 15:37:43;;;;;;;1.20;1.10;;;30.30;35.30;;;28.66;37.54;100903.56;12218310;19;20018;-85
2022/06/06 15:42:24;;;;;;;3.33;1.42;;;30.20;35.50;;;28.64;37.43;100905.63;12223069;19;20015;-85
2022/06/06 15:47:19;;;;;;;2.35;1.20;;;30.20;35.40;;;28.55;37.86;100876.44;12226087;19;20026;-83
2022/06/06 15:51:33;;;;;;;0.93;0.93;;;30.10;35.70;;;28.42;37.97;100869.94;12228865;19;20046;-84
2022/06/06 15:55:58;;;;;;;1.20;1.10;;;30.10;35.70;;;28.51;37.44;100896.66;12225822;19;20034;-84
2022/06/06 16:00:28;;;;;;;1.38;1.10;;;30.00;35.50;;;28.35;37.72;100898.59;12228853;19;20014;-85
2022/06/06 16:04:41;;;;;;;3.42;1.23;;;30.00;35.70;;;27.91;38.33;100928.44;12228237;19;20030;-83
2022/06/06 16:09:27;;;;;;;2.13;1.60;;;29.90;36.20;;;27.67;38.47;100953.81;12234035;19;20014;-84
2022/06/06 16:14:00;;;;;;;;;;;29.60;36.40;;;27.22;38.80;100963.81;12234135;19;20022;-84
2022/06/06 16:18:15;;;;;;;1.02;0.98;;;29.30;36.60;;;26.65;39.22;100944.75;12228726;19;19986;-84
2022/06/06 16:22:57;;;;;;;2.20;1.58;;;28.90;37.40;;;26.49;39.96;100975.19;12229140;19;20019;-84
2022/06/06 16:27:28;;;;;;;1.40;1.30;;;28.50;37.80;;;26.29;40.64;100975.88;12227003;19;20105;-84
2022/06/06 16:31:35;;;;;;;1.35;1.25;;;28.20;38.40;;;26.13;40.57;100998.28;12218184;19;20023;-86
2022/06/06 16:35:58;;;;;;;1.67;1.58;;;28.00;38.70;;;25.91;40.74;101016.84;12226757;19;20047;-84
2022/06/06 16:39:59;;;;;;;1.88;1.40;;;27.80;38.80;;;25.68;40.77;101007.94;12227031;19;20095;-85
2022/06/06 16:49:10;;;;;;;2.28;1.60;;;27.20;39.00;;;25.52;41.25;101020.41;12216680;19;20019;-84
2022/06/06 16:53:34;;;;;;;1.65;1.55;;;27.50;39.30;;;25.51;41.07;101031.25;12215543;19;20118;-84
2022/06/06 16:57:50;;;;;;;1.52;1.42;;;27.10;39.30;;;25.25;41.06;101016.34;12220420;19;20028;-85
2022/06/06 17:02:31;;;;;;;1.90;1.50;;;27.10;39.20;;;25.22;41.36;101026.53;12224610;19;20010;-85
2022/06/06 17:11:34;;;;;;;1.00;1.00;;;26.80;39.00;;;25.09;41.23;101024.41;12226648;19;20085;-85
2022/06/06 17:15:41;;;;;;;4.13;1.30;;;26.70;38.90;;;25.03;41.31;101028.56;12219407;19;20014;-85
2022/06/06 17:19:52;;;;;;;1.55;1.45;;;26.60;38.90;;;24.94;41.40;101005.56;12224959;19;20102;-86
2022/06/06 17:23:58;;;;;;;2.20;1.42;;;26.60;39.00;;;24.94;41.47;101016.25;12223829;19;20028;-86
2022/06/06 17:28:40;;;;;;;2.33;1.35;;;26.60;39.20;;;24.92;41.66;101012.91;12223040;19;20042;-86
2022/06/06 17:32:54;;;;;;;1.50;1.30;;;26.50;39.20;;;24.83;41.48;100992.59;12221560;19;20006;-85
2022/06/06 17:37:30;;;;;;;1.73;1.40;;;26.40;39.20;;;24.90;41.44;101009.59;12222092;19;20015;-85
2022/06/06 17:41:33;;;;;;;3.42;1.10;;;26.40;39.10;;;24.85;41.71;101002.09;12219435;19;20014;-87
2022/06/06 17:46:03;;;;;;;1.20;1.10;;;26.40;39.20;;;24.88;41.22;101012.44;12221715;19;20490;-85
2022/06/06 17:50:45;;;;;;;1.48;1.27;;;26.40;39.00;;;24.85;41.34;100999.44;12223899;19;20629;-86
2022/06/06 17:55:06;;;;;;;1.45;1.23;;;26.40;39.00;;;24.71;41.52;100982.28;12224336;19;20010;-85
2022/06/06 17:59:45;;;;;;;2.13;1.55;;;26.30;39.30;;;24.82;41.47;100999.78;12220098;19;20495;-85
2022/06/06 18:03:56;;;;;;;1.75;1.40;;;26.30;39.40;;;24.80;41.49;100991.09;12221711;19;20019;-85
2022/06/06 18:09:01;;;;;;;2.28;1.45;;;26.30;39.50;;;24.84;42.03;101000.41;12220933;19;20022;-84
2022/06/06 18:13:54;;;;;;;1.20;1.10;;;26.30;39.80;;;24.78;41.70;100995.75;12222548;19;20025;-84
2022/06/06 18:18:06;;;;;;;1.55;1.30;;;26.30;39.70;;;24.68;41.96;100992.44;12218504;19;20078;-85
2022/06/06 18:22:21;;;;;;;1.38;1.27;;;26.20;39.80;;;24.37;42.00;100965.63;12220354;19;20019;-85
2022/06/06 18:27:10;;;;;;;1.10;1.00;;;26.10;39.90;;;24.52;42.30;100990.66;12220118;19;20015;-85
2022/06/06 18:31:23;;;;;;;1.42;1.33;;;26.10;40.00;;;24.45;42.45;100990.50;12225258;19;20499;-84
2022/06/06 18:35:37;;;;;;;1.50;1.40;;;26.00;40.00;;;24.52;42.08;101009.34;12223155;19;20575;-84
2022/06/06 18:39:59;;;;;;;1.45;1.27;;;26.10;40.00;;;24.39;42.60;100990.31;12225389;19;20014;-84
2022/06/06 18:44:16;;;;;;;1.73;1.33;;;26.00;40.10;;;24.36;42.92;101001.31;12219971;19;20025;-84